sensor_id;sensor_type;location;lat;lon;timestamp;temperature;humidity
13472;DHT22;6808;49.444;11.034;2023-03-01T00:01:26;-0.70;95.70
13472;DHT22;6808;49.444;11.034;2023-03-01T00:03:52;-0.70;95.70
13472;DHT22;6808;49.444;11.034;2023-03-01T00:06:19;-0.60;95.80
13472;DHT22;6808;49.444;11.034;2023-03-01T00:08:53;-0.70;95.70
13472;DHT22;6808;49.444;11.034;2023-03-01T00:11:25;-0.70;95.70
13472;DHT22;6808;49.444;11.034;2023-03-01T00:13:53;-0.70;95.60
13472;DHT22;6808;49.444;11.034;2023-03-01T00:16:25;-0.70;95.70
13472;DHT22;6808;49.444;11.034;2023-03-01T00:18:51;-0.70;95.70
13472;DHT22;6808;49.444;11.034;2023-03-01T00:21:17;-0.70;95.80
13472;DHT22;6808;49.444;11.034;2023-03-01T00:23:42;-0.70;95.80
13472;DHT22;6808;49.444;11.034;2023-03-01T00:26:12;-0.70;95.80
13472;DHT22;6808;49.444;11.034;2023-03-01T00:28:37;-0.70;95.60
13472;DHT22;6808;49.444;11.034;2023-03-01T00:31:09;-0.70;95.70
13472;DHT22;6808;49.444;11.034;2023-03-01T00:33:34;-0.70;96.00
13472;DHT22;6808;49.444;11.034;2023-03-01T00:36:01;-0.70;95.90
13472;DHT22;6808;49.444;11.034;2023-03-01T00:38:27;-0.70;95.90
13472;DHT22;6808;49.444;11.034;2023-03-01T00:40:53;-0.80;95.80
13472;DHT22;6808;49.444;11.034;2023-03-01T00:43:18;-1.20;95.50
13472;DHT22;6808;49.444;11.034;2023-03-01T00:45:44;-0.80;95.80
13472;DHT22;6808;49.444;11.034;2023-03-01T00:48:09;-0.80;95.80
13472;DHT22;6808;49.444;11.034;2023-03-01T00:50:35;-0.80;95.60
13472;DHT22;6808;49.444;11.034;2023-03-01T00:53:01;-0.80;95.70
13472;DHT22;6808;49.444;11.034;2023-03-01T00:55:26;-0.80;95.80
13472;DHT22;6808;49.444;11.034;2023-03-01T00:57:52;-0.80;95.80
13472;DHT22;6808;49.444;11.034;2023-03-01T01:00:19;-0.80;95.80
13472;DHT22;6808;49.444;11.034;2023-03-01T01:02:45;-0.80;95.80
13472;DHT22;6808;49.444;11.034;2023-03-01T01:05:11;-0.80;95.80
13472;DHT22;6808;49.444;11.034;2023-03-01T01:07:37;-0.80;95.80
13472;DHT22;6808;49.444;11.034;2023-03-01T01:10:03;-0.80;95.70
13472;DHT22;6808;49.444;11.034;2023-03-01T01:12:28;-0.80;95.80
13472;DHT22;6808;49.444;11.034;2023-03-01T01:14:54;-0.70;95.60
13472;DHT22;6808;49.444;11.034;2023-03-01T01:17:20;-0.70;95.50
13472;DHT22;6808;49.444;11.034;2023-03-01T01:19:46;-0.60;95.50
13472;DHT22;6808;49.444;11.034;2023-03-01T01:22:11;-0.70;95.40
13472;DHT22;6808;49.444;11.034;2023-03-01T01:24:37;-0.70;95.40
13472;DHT22;6808;49.444;11.034;2023-03-01T01:27:02;-0.70;95.40
13472;DHT22;6808;49.444;11.034;2023-03-01T01:29:28;-0.70;95.40
13472;DHT22;6808;49.444;11.034;2023-03-01T01:31:53;-0.70;95.40
13472;DHT22;6808;49.444;11.034;2023-03-01T01:34:20;-0.70;95.40
13472;DHT22;6808;49.444;11.034;2023-03-01T01:36:50;-0.70;95.30
13472;DHT22;6808;49.444;11.034;2023-03-01T01:39:18;-0.70;95.40
13472;DHT22;6808;49.444;11.034;2023-03-01T01:41:44;-0.70;95.40
13472;DHT22;6808;49.444;11.034;2023-03-01T01:46:51;-0.80;95.40
13472;DHT22;6808;49.444;11.034;2023-03-01T01:49:26;-0.80;95.40
13472;DHT22;6808;49.444;11.034;2023-03-01T01:52:00;-0.80;95.50
13472;DHT22;6808;49.444;11.034;2023-03-01T01:54:34;-0.80;95.50
13472;DHT22;6808;49.444;11.034;2023-03-01T01:57:07;-0.80;95.50
13472;DHT22;6808;49.444;11.034;2023-03-01T01:59:34;-0.80;95.40
13472;DHT22;6808;49.444;11.034;2023-03-01T02:02:02;-0.80;95.40
13472;DHT22;6808;49.444;11.034;2023-03-01T02:04:29;-0.80;95.50
13472;DHT22;6808;49.444;11.034;2023-03-01T02:07:05;-0.80;95.40
13472;DHT22;6808;49.444;11.034;2023-03-01T02:09:32;-0.80;95.40
13472;DHT22;6808;49.444;11.034;2023-03-01T02:11:59;-0.80;95.40
13472;DHT22;6808;49.444;11.034;2023-03-01T02:14:25;-0.80;95.50
13472;DHT22;6808;49.444;11.034;2023-03-01T02:16:51;-0.90;95.40
13472;DHT22;6808;49.444;11.034;2023-03-01T02:19:38;-0.90;95.40
13472;DHT22;6808;49.444;11.034;2023-03-01T02:22:20;-0.80;95.50
13472;DHT22;6808;49.444;11.034;2023-03-01T02:28:02;-0.90;95.40
13472;DHT22;6808;49.444;11.034;2023-03-01T02:30:24;-0.80;95.50
13472;DHT22;6808;49.444;11.034;2023-03-01T02:32:52;-0.90;95.40
13472;DHT22;6808;49.444;11.034;2023-03-01T02:35:19;-0.90;95.50
13472;DHT22;6808;49.444;11.034;2023-03-01T02:37:45;-0.80;95.60
13472;DHT22;6808;49.444;11.034;2023-03-01T02:40:16;-0.80;95.40
13472;DHT22;6808;49.444;11.034;2023-03-01T02:42:49;-0.80;95.50
13472;DHT22;6808;49.444;11.034;2023-03-01T02:45:16;-0.80;95.40
13472;DHT22;6808;49.444;11.034;2023-03-01T02:47:41;-0.80;95.40
13472;DHT22;6808;49.444;11.034;2023-03-01T02:53:10;-0.80;95.50
13472;DHT22;6808;49.444;11.034;2023-03-01T02:55:38;-0.90;95.40
13472;DHT22;6808;49.444;11.034;2023-03-01T02:58:04;-0.90;95.30
13472;DHT22;6808;49.444;11.034;2023-03-01T03:00:38;-0.90;95.40
13472;DHT22;6808;49.444;11.034;2023-03-01T03:03:05;-0.80;95.50
13472;DHT22;6808;49.444;11.034;2023-03-01T03:05:32;-0.90;95.30
13472;DHT22;6808;49.444;11.034;2023-03-01T03:07:59;-0.80;95.40
13472;DHT22;6808;49.444;11.034;2023-03-01T03:10:29;-0.80;95.40
13472;DHT22;6808;49.444;11.034;2023-03-01T03:13:02;-1.00;95.30
13472;DHT22;6808;49.444;11.034;2023-03-01T03:15:29;-0.90;95.40
13472;DHT22;6808;49.444;11.034;2023-03-01T03:17:56;-0.90;95.40
13472;DHT22;6808;49.444;11.034;2023-03-01T03:20:24;-0.90;95.40
13472;DHT22;6808;49.444;11.034;2023-03-01T03:22:52;-0.90;95.40
13472;DHT22;6808;49.444;11.034;2023-03-01T03:25:18;-0.60;95.50
13472;DHT22;6808;49.444;11.034;2023-03-01T03:27:46;-0.90;95.30
13472;DHT22;6808;49.444;11.034;2023-03-01T03:30:16;-1.00;95.30
13472;DHT22;6808;49.444;11.034;2023-03-01T03:32:43;-1.00;95.30
13472;DHT22;6808;49.444;11.034;2023-03-01T03:36:00;-1.00;95.30
13472;DHT22;6808;49.444;11.034;2023-03-01T03:38:08;-1.00;95.40
13472;DHT22;6808;49.444;11.034;2023-03-01T03:40:43;-1.00;95.30
13472;DHT22;6808;49.444;11.034;2023-03-01T03:43:12;-1.00;95.30
13472;DHT22;6808;49.444;11.034;2023-03-01T03:45:38;-1.00;95.30
13472;DHT22;6808;49.444;11.034;2023-03-01T03:48:07;-1.00;95.30
13472;DHT22;6808;49.444;11.034;2023-03-01T03:50:34;-1.00;95.40
13472;DHT22;6808;49.444;11.034;2023-03-01T03:53:01;-1.00;95.20
13472;DHT22;6808;49.444;11.034;2023-03-01T03:55:27;-1.00;95.70
13472;DHT22;6808;49.444;11.034;2023-03-01T03:57:57;-0.90;95.70
13472;DHT22;6808;49.444;11.034;2023-03-01T04:00:23;-1.00;95.70
13472;DHT22;6808;49.444;11.034;2023-03-01T04:02:50;-1.00;95.80
13472;DHT22;6808;49.444;11.034;2023-03-01T04:05:17;-1.00;95.90
13472;DHT22;6808;49.444;11.034;2023-03-01T04:07:44;-1.10;96.10
13472;DHT22;6808;49.444;11.034;2023-03-01T04:10:13;-1.10;95.90
13472;DHT22;6808;49.444;11.034;2023-03-01T04:12:38;-1.10;95.80
13472;DHT22;6808;49.444;11.034;2023-03-01T04:15:06;-1.10;95.80
13472;DHT22;6808;49.444;11.034;2023-03-01T04:17:45;-1.10;95.90
13472;DHT22;6808;49.444;11.034;2023-03-01T04:20:16;-1.10;95.90
13472;DHT22;6808;49.444;11.034;2023-03-01T04:23:01;-1.20;95.80
13472;DHT22;6808;49.444;11.034;2023-03-01T04:25:38;-1.20;95.70
13472;DHT22;6808;49.444;11.034;2023-03-01T04:28:04;-1.20;95.50
13472;DHT22;6808;49.444;11.034;2023-03-01T04:30:30;-1.20;95.40
13472;DHT22;6808;49.444;11.034;2023-03-01T04:33:04;-1.20;95.40
13472;DHT22;6808;49.444;11.034;2023-03-01T04:35:31;-1.20;95.40
13472;DHT22;6808;49.444;11.034;2023-03-01T04:37:57;-1.20;95.40
13472;DHT22;6808;49.444;11.034;2023-03-01T04:40:22;-1.20;95.40
13472;DHT22;6808;49.444;11.034;2023-03-01T04:42:48;-1.20;95.60
13472;DHT22;6808;49.444;11.034;2023-03-01T04:45:15;-1.20;95.40
13472;DHT22;6808;49.444;11.034;2023-03-01T04:47:42;-1.20;95.30
13472;DHT22;6808;49.444;11.034;2023-03-01T04:50:10;-0.70;95.60
13472;DHT22;6808;49.444;11.034;2023-03-01T04:52:37;-1.20;95.20
13472;DHT22;6808;49.444;11.034;2023-03-01T04:55:03;-1.30;95.20
13472;DHT22;6808;49.444;11.034;2023-03-01T04:57:29;-1.30;95.20
13472;DHT22;6808;49.444;11.034;2023-03-01T04:59:55;-1.30;95.20
13472;DHT22;6808;49.444;11.034;2023-03-01T05:02:21;-1.30;95.30
13472;DHT22;6808;49.444;11.034;2023-03-01T05:04:46;-1.30;95.40
13472;DHT22;6808;49.444;11.034;2023-03-01T05:07:12;-1.30;95.40
13472;DHT22;6808;49.444;11.034;2023-03-01T05:09:38;-1.30;95.60
13472;DHT22;6808;49.444;11.034;2023-03-01T05:12:04;-1.30;95.60
13472;DHT22;6808;49.444;11.034;2023-03-01T05:14:30;-1.30;95.70
13472;DHT22;6808;49.444;11.034;2023-03-01T05:16:55;-1.30;95.70
13472;DHT22;6808;49.444;11.034;2023-03-01T05:19:29;-1.30;95.60
13472;DHT22;6808;49.444;11.034;2023-03-01T05:21:56;-1.30;95.60
13472;DHT22;6808;49.444;11.034;2023-03-01T05:24:34;-1.30;95.70
13472;DHT22;6808;49.444;11.034;2023-03-01T05:27:01;-1.20;95.70
13472;DHT22;6808;49.444;11.034;2023-03-01T05:29:28;-1.30;95.60
13472;DHT22;6808;49.444;11.034;2023-03-01T05:31:57;-1.30;95.60
13472;DHT22;6808;49.444;11.034;2023-03-01T05:34:28;-1.40;95.60
13472;DHT22;6808;49.444;11.034;2023-03-01T05:36:54;-1.40;95.70
13472;DHT22;6808;49.444;11.034;2023-03-01T05:39:24;-1.40;95.80
13472;DHT22;6808;49.444;11.034;2023-03-01T05:41:59;-1.50;95.90
13472;DHT22;6808;49.444;11.034;2023-03-01T05:44:26;-1.50;95.90
13472;DHT22;6808;49.444;11.034;2023-03-01T05:46:52;-1.50;96.10
13472;DHT22;6808;49.444;11.034;2023-03-01T05:49:18;-1.50;96.10
13472;DHT22;6808;49.444;11.034;2023-03-01T05:51:48;-1.10;96.20
13472;DHT22;6808;49.444;11.034;2023-03-01T05:54:15;-1.50;96.20
13472;DHT22;6808;49.444;11.034;2023-03-01T05:56:41;-1.50;96.10
13472;DHT22;6808;49.444;11.034;2023-03-01T05:59:06;-1.50;96.00
13472;DHT22;6808;49.444;11.034;2023-03-01T06:01:33;-1.60;95.90
13472;DHT22;6808;49.444;11.034;2023-03-01T06:03:59;-1.60;95.90
13472;DHT22;6808;49.444;11.034;2023-03-01T06:06:24;-1.60;96.00
13472;DHT22;6808;49.444;11.034;2023-03-01T06:08:51;-1.60;96.00
13472;DHT22;6808;49.444;11.034;2023-03-01T06:11:17;-1.60;96.00
13472;DHT22;6808;49.444;11.034;2023-03-01T06:13:43;-1.60;96.00
13472;DHT22;6808;49.444;11.034;2023-03-01T06:16:09;-1.60;96.20
13472;DHT22;6808;49.444;11.034;2023-03-01T06:18:36;-1.60;96.40
13472;DHT22;6808;49.444;11.034;2023-03-01T06:21:05;-1.60;96.40
13472;DHT22;6808;49.444;11.034;2023-03-01T06:23:31;-1.60;96.50
13472;DHT22;6808;49.444;11.034;2023-03-01T06:25:57;-1.70;96.50
13472;DHT22;6808;49.444;11.034;2023-03-01T06:28:23;-1.70;96.50
13472;DHT22;6808;49.444;11.034;2023-03-01T06:30:52;-1.70;96.60
13472;DHT22;6808;49.444;11.034;2023-03-01T06:33:19;-1.70;96.60
13472;DHT22;6808;49.444;11.034;2023-03-01T06:35:50;-1.70;96.70
13472;DHT22;6808;49.444;11.034;2023-03-01T06:38:15;-1.70;96.80
13472;DHT22;6808;49.444;11.034;2023-03-01T06:40:43;-1.70;96.90
13472;DHT22;6808;49.444;11.034;2023-03-01T06:43:09;-1.70;96.90
13472;DHT22;6808;49.444;11.034;2023-03-01T06:45:40;-1.70;96.80
13472;DHT22;6808;49.444;11.034;2023-03-01T06:48:07;-1.70;96.80
13472;DHT22;6808;49.444;11.034;2023-03-01T06:50:36;-1.70;97.00
13472;DHT22;6808;49.444;11.034;2023-03-01T06:53:02;-1.70;97.00
13472;DHT22;6808;49.444;11.034;2023-03-01T06:55:29;-1.70;97.10
13472;DHT22;6808;49.444;11.034;2023-03-01T06:57:55;-1.70;97.10
13472;DHT22;6808;49.444;11.034;2023-03-01T07:00:22;-1.70;97.00
13472;DHT22;6808;49.444;11.034;2023-03-01T07:02:47;-1.70;97.20
13472;DHT22;6808;49.444;11.034;2023-03-01T07:05:13;-1.70;97.00
13472;DHT22;6808;49.444;11.034;2023-03-01T07:07:38;-1.60;96.90
13472;DHT22;6808;49.444;11.034;2023-03-01T07:10:04;-1.60;96.70
13472;DHT22;6808;49.444;11.034;2023-03-01T07:12:30;-1.60;96.80
13472;DHT22;6808;49.444;11.034;2023-03-01T07:14:56;-1.50;96.90
13472;DHT22;6808;49.444;11.034;2023-03-01T07:17:21;-1.40;96.80
13472;DHT22;6808;49.444;11.034;2023-03-01T07:19:47;-1.40;96.50
13472;DHT22;6808;49.444;11.034;2023-03-01T07:22:16;-1.30;96.30
13472;DHT22;6808;49.444;11.034;2023-03-01T07:24:42;-1.20;96.40
13472;DHT22;6808;49.444;11.034;2023-03-01T07:27:14;-1.20;96.10
13472;DHT22;6808;49.444;11.034;2023-03-01T07:29:39;-1.00;96.10
13472;DHT22;6808;49.444;11.034;2023-03-01T07:32:06;-0.80;95.40
13472;DHT22;6808;49.444;11.034;2023-03-01T07:34:31;-0.80;95.30
13472;DHT22;6808;49.444;11.034;2023-03-01T07:36:57;-0.70;95.40
13472;DHT22;6808;49.444;11.034;2023-03-01T07:39:22;-0.70;95.20
13472;DHT22;6808;49.444;11.034;2023-03-01T07:41:49;-0.60;95.00
13472;DHT22;6808;49.444;11.034;2023-03-01T07:44:14;-0.50;94.80
13472;DHT22;6808;49.444;11.034;2023-03-01T07:46:43;-0.50;94.70
13472;DHT22;6808;49.444;11.034;2023-03-01T07:49:09;-0.40;94.40
13472;DHT22;6808;49.444;11.034;2023-03-01T07:51:35;-0.30;94.40
13472;DHT22;6808;49.444;11.034;2023-03-01T07:54:01;-0.20;94.30
13472;DHT22;6808;49.444;11.034;2023-03-01T07:56:26;-0.10;94.10
13472;DHT22;6808;49.444;11.034;2023-03-01T07:58:52;0.00;94.00
13472;DHT22;6808;49.444;11.034;2023-03-01T08:01:19;0.10;93.70
13472;DHT22;6808;49.444;11.034;2023-03-01T08:03:45;0.10;93.60
13472;DHT22;6808;49.444;11.034;2023-03-01T08:06:13;0.10;93.60
13472;DHT22;6808;49.444;11.034;2023-03-01T08:08:39;0.20;93.50
13472;DHT22;6808;49.444;11.034;2023-03-01T08:11:06;0.30;93.20
13472;DHT22;6808;49.444;11.034;2023-03-01T08:13:33;0.40;93.10
13472;DHT22;6808;49.444;11.034;2023-03-01T08:16:08;0.50;92.70
13472;DHT22;6808;49.444;11.034;2023-03-01T08:18:34;0.50;92.60
13472;DHT22;6808;49.444;11.034;2023-03-01T08:21:18;0.60;92.50
13472;DHT22;6808;49.444;11.034;2023-03-01T08:23:45;0.60;92.50
13472;DHT22;6808;49.444;11.034;2023-03-01T08:26:16;0.70;92.40
13472;DHT22;6808;49.444;11.034;2023-03-01T08:28:44;0.80;91.90
13472;DHT22;6808;49.444;11.034;2023-03-01T08:31:18;0.90;91.80
13472;DHT22;6808;49.444;11.034;2023-03-01T08:33:45;1.00;91.20
13472;DHT22;6808;49.444;11.034;2023-03-01T08:36:16;1.00;91.50
13472;DHT22;6808;49.444;11.034;2023-03-01T08:38:42;1.00;91.50
13472;DHT22;6808;49.444;11.034;2023-03-01T08:41:07;1.00;91.60
13472;DHT22;6808;49.444;11.034;2023-03-01T08:43:33;0.90;91.70
13472;DHT22;6808;49.444;11.034;2023-03-01T08:45:59;1.00;91.70
13472;DHT22;6808;49.444;11.034;2023-03-01T08:48:25;1.00;91.80
13472;DHT22;6808;49.444;11.034;2023-03-01T08:50:50;1.30;91.40
13472;DHT22;6808;49.444;11.034;2023-03-01T08:53:16;1.40;90.60
13472;DHT22;6808;49.444;11.034;2023-03-01T08:55:42;1.40;90.90
13472;DHT22;6808;49.444;11.034;2023-03-01T08:58:07;1.40;90.70
13472;DHT22;6808;49.444;11.034;2023-03-01T09:00:33;1.60;90.50
13472;DHT22;6808;49.444;11.034;2023-03-01T09:03:00;1.70;89.70
13472;DHT22;6808;49.444;11.034;2023-03-01T09:05:26;1.70;90.10
13472;DHT22;6808;49.444;11.034;2023-03-01T09:07:53;1.70;89.50
13472;DHT22;6808;49.444;11.034;2023-03-01T09:10:19;1.80;90.00
13472;DHT22;6808;49.444;11.034;2023-03-01T09:12:44;1.90;89.30
13472;DHT22;6808;49.444;11.034;2023-03-01T09:15:10;2.00;89.30
13472;DHT22;6808;49.444;11.034;2023-03-01T09:17:35;2.10;88.40
13472;DHT22;6808;49.444;11.034;2023-03-01T09:20:01;2.10;89.00
13472;DHT22;6808;49.444;11.034;2023-03-01T09:22:29;2.30;86.80
13472;DHT22;6808;49.444;11.034;2023-03-01T09:24:54;2.30;85.40
13472;DHT22;6808;49.444;11.034;2023-03-01T09:27:21;2.40;85.60
13472;DHT22;6808;49.444;11.034;2023-03-01T09:29:47;2.40;85.30
13472;DHT22;6808;49.444;11.034;2023-03-01T09:32:13;2.50;85.60
13472;DHT22;6808;49.444;11.034;2023-03-01T09:34:38;2.50;86.00
13472;DHT22;6808;49.444;11.034;2023-03-01T09:37:24;2.70;84.50
13472;DHT22;6808;49.444;11.034;2023-03-01T09:39:49;2.80;83.40
13472;DHT22;6808;49.444;11.034;2023-03-01T09:42:15;2.70;84.30
13472;DHT22;6808;49.444;11.034;2023-03-01T09:45:02;2.60;84.00
13472;DHT22;6808;49.444;11.034;2023-03-01T09:47:34;2.60;84.90
13472;DHT22;6808;49.444;11.034;2023-03-01T09:50:10;2.50;85.40
13472;DHT22;6808;49.444;11.034;2023-03-01T09:55:20;2.70;85.30
13472;DHT22;6808;49.444;11.034;2023-03-01T09:57:55;2.70;85.00
13472;DHT22;6808;49.444;11.034;2023-03-01T10:00:42;2.70;84.10
13472;DHT22;6808;49.444;11.034;2023-03-01T10:05:44;2.70;83.90
13472;DHT22;6808;49.444;11.034;2023-03-01T10:08:34;2.70;84.10
13472;DHT22;6808;49.444;11.034;2023-03-01T10:11:05;2.80;83.40
13472;DHT22;6808;49.444;11.034;2023-03-01T10:16:57;3.10;83.10
13472;DHT22;6808;49.444;11.034;2023-03-01T10:19:29;3.10;81.90
13472;DHT22;6808;49.444;11.034;2023-03-01T10:22:01;3.20;81.90
13472;DHT22;6808;49.444;11.034;2023-03-01T10:24:31;3.20;82.10
13472;DHT22;6808;49.444;11.034;2023-03-01T10:27:19;3.50;78.90
13472;DHT22;6808;49.444;11.034;2023-03-01T10:30:16;3.70;78.00
13472;DHT22;6808;49.444;11.034;2023-03-01T10:32:43;3.70;79.80
13472;DHT22;6808;49.444;11.034;2023-03-01T10:35:36;3.60;79.90
13472;DHT22;6808;49.444;11.034;2023-03-01T10:38:12;3.60;78.40
13472;DHT22;6808;49.444;11.034;2023-03-01T10:40:53;3.60;79.00
13472;DHT22;6808;49.444;11.034;2023-03-01T10:43:20;3.60;79.90
13472;DHT22;6808;49.444;11.034;2023-03-01T10:45:47;3.70;78.40
13472;DHT22;6808;49.444;11.034;2023-03-01T10:48:21;3.80;80.40
13472;DHT22;6808;49.444;11.034;2023-03-01T10:56:03;4.00;78.90
13472;DHT22;6808;49.444;11.034;2023-03-01T10:58:31;4.20;80.40
13472;DHT22;6808;49.444;11.034;2023-03-01T11:01:00;4.20;79.10
13472;DHT22;6808;49.444;11.034;2023-03-01T11:03:32;4.30;78.20
13472;DHT22;6808;49.444;11.034;2023-03-01T11:06:20;4.50;78.60
13472;DHT22;6808;49.444;11.034;2023-03-01T11:08:48;4.50;78.70
13472;DHT22;6808;49.444;11.034;2023-03-01T11:14:07;4.70;76.40
13472;DHT22;6808;49.444;11.034;2023-03-01T11:16:38;4.70;76.40
13472;DHT22;6808;49.444;11.034;2023-03-01T11:21:38;4.70;75.80
13472;DHT22;6808;49.444;11.034;2023-03-01T11:24:09;4.80;74.50
13472;DHT22;6808;49.444;11.034;2023-03-01T11:26:40;5.00;74.60
13472;DHT22;6808;49.444;11.034;2023-03-01T11:29:16;5.00;72.20
13472;DHT22;6808;49.444;11.034;2023-03-01T11:31:43;5.20;69.40
13472;DHT22;6808;49.444;11.034;2023-03-01T11:34:16;5.30;69.70
13472;DHT22;6808;49.444;11.034;2023-03-01T11:36:58;5.40;71.30
13472;DHT22;6808;49.444;11.034;2023-03-01T11:39:32;5.40;71.20
13472;DHT22;6808;49.444;11.034;2023-03-01T11:42:20;5.40;72.20
13472;DHT22;6808;49.444;11.034;2023-03-01T11:44:49;5.50;67.20
13472;DHT22;6808;49.444;11.034;2023-03-01T11:58:15;5.90;68.60
13472;DHT22;6808;49.444;11.034;2023-03-01T12:03:22;6.10;65.40
13472;DHT22;6808;49.444;11.034;2023-03-01T12:06:16;6.30;63.50
13472;DHT22;6808;49.444;11.034;2023-03-01T12:09:19;6.40;63.60
13472;DHT22;6808;49.444;11.034;2023-03-01T12:20:39;7.00;64.50
13472;DHT22;6808;49.444;11.034;2023-03-01T12:37:54;7.40;62.00
13472;DHT22;6808;49.444;11.034;2023-03-01T12:40:33;7.50;58.10
13472;DHT22;6808;49.444;11.034;2023-03-01T12:46:15;7.50;58.60
13472;DHT22;6808;49.444;11.034;2023-03-01T12:51:33;7.80;59.10
13472;DHT22;6808;49.444;11.034;2023-03-01T12:54:05;7.70;59.80
13472;DHT22;6808;49.444;11.034;2023-03-01T12:56:36;7.80;58.60
13472;DHT22;6808;49.444;11.034;2023-03-01T12:59:21;7.90;60.20
13472;DHT22;6808;49.444;11.034;2023-03-01T13:02:27;7.90;58.20
13472;DHT22;6808;49.444;11.034;2023-03-01T13:10:42;7.90;58.40
13472;DHT22;6808;49.444;11.034;2023-03-01T13:15:35;8.00;58.80
13472;DHT22;6808;49.444;11.034;2023-03-01T13:23:26;8.20;59.80
13472;DHT22;6808;49.444;11.034;2023-03-01T13:33:54;8.40;60.60
13472;DHT22;6808;49.444;11.034;2023-03-01T13:39:02;8.50;59.80
13472;DHT22;6808;49.444;11.034;2023-03-01T13:46:47;8.50;58.70
13472;DHT22;6808;49.444;11.034;2023-03-01T13:49:16;8.50;58.80
13472;DHT22;6808;49.444;11.034;2023-03-01T13:51:46;8.50;59.80
13472;DHT22;6808;49.444;11.034;2023-03-01T13:54:15;8.60;60.70
13472;DHT22;6808;49.444;11.034;2023-03-01T13:56:41;9.20;59.60
13472;DHT22;6808;49.444;11.034;2023-03-01T13:59:15;8.50;59.80
13472;DHT22;6808;49.444;11.034;2023-03-01T14:01:41;8.60;61.50
13472;DHT22;6808;49.444;11.034;2023-03-01T14:04:27;8.70;61.80
13472;DHT22;6808;49.444;11.034;2023-03-01T14:07:19;8.90;59.90
13472;DHT22;6808;49.444;11.034;2023-03-01T14:09:51;8.90;59.10
13472;DHT22;6808;49.444;11.034;2023-03-01T14:15:25;8.80;61.20
13472;DHT22;6808;49.444;11.034;2023-03-01T14:20:23;8.90;60.50
13472;DHT22;6808;49.444;11.034;2023-03-01T14:22:53;8.90;59.70
13472;DHT22;6808;49.444;11.034;2023-03-01T14:25:23;8.90;59.80
13472;DHT22;6808;49.444;11.034;2023-03-01T14:30:44;9.00;60.40
13472;DHT22;6808;49.444;11.034;2023-03-01T14:33:36;8.90;60.30
13472;DHT22;6808;49.444;11.034;2023-03-01T14:38:40;8.90;61.20
13472;DHT22;6808;49.444;11.034;2023-03-01T14:41:22;8.80;61.50
13472;DHT22;6808;49.444;11.034;2023-03-01T14:43:53;8.80;61.80
13472;DHT22;6808;49.444;11.034;2023-03-01T14:46:42;8.70;61.90
13472;DHT22;6808;49.444;11.034;2023-03-01T14:49:15;8.70;62.30
13472;DHT22;6808;49.444;11.034;2023-03-01T14:52:06;8.60;62.20
13472;DHT22;6808;49.444;11.034;2023-03-01T14:54:42;8.60;63.30
13472;DHT22;6808;49.444;11.034;2023-03-01T14:57:22;8.60;63.10
13472;DHT22;6808;49.444;11.034;2023-03-01T14:59:49;8.60;63.60
13472;DHT22;6808;49.444;11.034;2023-03-01T15:02:18;8.50;63.40
13472;DHT22;6808;49.444;11.034;2023-03-01T15:05:13;8.50;64.00
13472;DHT22;6808;49.444;11.034;2023-03-01T15:07:40;8.40;63.90
13472;DHT22;6808;49.444;11.034;2023-03-01T15:10:17;8.40;64.50
13472;DHT22;6808;49.444;11.034;2023-03-01T15:12:42;8.40;63.30
13472;DHT22;6808;49.444;11.034;2023-03-01T15:18:00;8.20;65.10
13472;DHT22;6808;49.444;11.034;2023-03-01T15:20:28;8.10;65.30
13472;DHT22;6808;49.444;11.034;2023-03-01T15:22:56;8.10;65.90
13472;DHT22;6808;49.444;11.034;2023-03-01T15:25:27;8.10;66.40
13472;DHT22;6808;49.444;11.034;2023-03-01T15:27:55;8.10;66.70
13472;DHT22;6808;49.444;11.034;2023-03-01T15:30:26;8.10;66.70
13472;DHT22;6808;49.444;11.034;2023-03-01T15:33:19;8.00;66.70
13472;DHT22;6808;49.444;11.034;2023-03-01T15:35:48;8.00;67.40
13472;DHT22;6808;49.444;11.034;2023-03-01T15:38:55;8.00;67.40
13472;DHT22;6808;49.444;11.034;2023-03-01T15:41:47;8.00;66.70
13472;DHT22;6808;49.444;11.034;2023-03-01T15:44:32;8.00;67.70
13472;DHT22;6808;49.444;11.034;2023-03-01T15:46:58;7.80;69.30
13472;DHT22;6808;49.444;11.034;2023-03-01T15:49:39;7.80;69.60
13472;DHT22;6808;49.444;11.034;2023-03-01T15:52:19;7.80;70.30
13472;DHT22;6808;49.444;11.034;2023-03-01T15:54:46;7.80;70.10
13472;DHT22;6808;49.444;11.034;2023-03-01T15:57:13;8.30;70.40
13472;DHT22;6808;49.444;11.034;2023-03-01T15:59:40;7.70;69.10
13472;DHT22;6808;49.444;11.034;2023-03-01T16:02:11;7.70;70.30
13472;DHT22;6808;49.444;11.034;2023-03-01T16:04:39;7.70;71.00
13472;DHT22;6808;49.444;11.034;2023-03-01T16:07:05;7.80;71.30
13472;DHT22;6808;49.444;11.034;2023-03-01T16:09:30;7.60;71.20
13472;DHT22;6808;49.444;11.034;2023-03-01T16:11:56;7.60;71.80
13472;DHT22;6808;49.444;11.034;2023-03-01T16:14:22;7.50;71.90
13472;DHT22;6808;49.444;11.034;2023-03-01T16:16:48;7.50;72.40
13472;DHT22;6808;49.444;11.034;2023-03-01T16:19:15;7.50;71.90
13472;DHT22;6808;49.444;11.034;2023-03-01T16:21:43;7.40;71.70
13472;DHT22;6808;49.444;11.034;2023-03-01T16:24:12;7.40;72.30
13472;DHT22;6808;49.444;11.034;2023-03-01T16:26:39;7.30;72.60
13472;DHT22;6808;49.444;11.034;2023-03-01T16:29:05;7.30;73.30
13472;DHT22;6808;49.444;11.034;2023-03-01T16:31:32;7.30;73.60
13472;DHT22;6808;49.444;11.034;2023-03-01T16:33:58;7.20;73.70
13472;DHT22;6808;49.444;11.034;2023-03-01T16:36:26;7.20;74.20
13472;DHT22;6808;49.444;11.034;2023-03-01T16:38:54;7.20;73.80
13472;DHT22;6808;49.444;11.034;2023-03-01T16:41:21;7.20;73.80
13472;DHT22;6808;49.444;11.034;2023-03-01T16:43:48;7.10;74.80
13472;DHT22;6808;49.444;11.034;2023-03-01T16:46:22;7.10;74.80
13472;DHT22;6808;49.444;11.034;2023-03-01T16:48:50;7.00;75.60
13472;DHT22;6808;49.444;11.034;2023-03-01T16:51:18;7.00;75.70
13472;DHT22;6808;49.444;11.034;2023-03-01T16:53:44;6.90;76.10
13472;DHT22;6808;49.444;11.034;2023-03-01T16:56:11;6.90;76.20
13472;DHT22;6808;49.444;11.034;2023-03-01T16:58:39;6.90;76.80
13472;DHT22;6808;49.444;11.034;2023-03-01T17:01:14;6.80;77.10
13472;DHT22;6808;49.444;11.034;2023-03-01T17:03:41;6.80;77.70
13472;DHT22;6808;49.444;11.034;2023-03-01T17:06:10;6.70;77.70
13472;DHT22;6808;49.444;11.034;2023-03-01T17:08:36;6.70;77.40
13472;DHT22;6808;49.444;11.034;2023-03-01T17:11:14;6.70;77.00
13472;DHT22;6808;49.444;11.034;2023-03-01T17:13:41;6.70;77.60
13472;DHT22;6808;49.444;11.034;2023-03-01T17:16:10;6.60;77.30
13472;DHT22;6808;49.444;11.034;2023-03-01T17:18:36;6.50;77.40
13472;DHT22;6808;49.444;11.034;2023-03-01T17:21:03;6.50;77.20
13472;DHT22;6808;49.444;11.034;2023-03-01T17:23:30;6.40;77.50
13472;DHT22;6808;49.444;11.034;2023-03-01T17:25:56;6.40;77.40
13472;DHT22;6808;49.444;11.034;2023-03-01T17:28:23;6.30;77.90
13472;DHT22;6808;49.444;11.034;2023-03-01T17:30:48;6.30;78.60
13472;DHT22;6808;49.444;11.034;2023-03-01T17:33:32;6.30;79.30
13472;DHT22;6808;49.444;11.034;2023-03-01T17:35:59;6.20;78.40
13472;DHT22;6808;49.444;11.034;2023-03-01T17:38:25;6.20;79.10
13472;DHT22;6808;49.444;11.034;2023-03-01T17:40:52;6.10;80.40
13472;DHT22;6808;49.444;11.034;2023-03-01T17:43:18;6.10;80.90
13472;DHT22;6808;49.444;11.034;2023-03-01T17:45:45;6.10;81.50
13472;DHT22;6808;49.444;11.034;2023-03-01T17:48:15;6.10;82.30